createdAt,value
2018-06-10T00:13:43.695Z,20.91
2018-06-10T00:20:37.919Z,20.80
2018-06-10T00:21:45.035Z,20.77
2018-06-10T00:22:51.698Z,20.77
2018-06-10T00:23:58.503Z,20.76
2018-06-10T00:25:06.005Z,20.76
2018-06-10T00:26:13.469Z,20.73
2018-06-10T00:27:19.067Z,20.73
2018-06-10T00:28:26.115Z,20.72
2018-06-10T00:29:33.887Z,20.72
2018-06-10T00:30:39.755Z,20.72
2018-06-10T00:31:46.449Z,20.70
2018-06-10T00:32:53.099Z,20.69
2018-06-10T00:34:00.151Z,20.70
2018-06-10T00:35:07.664Z,20.68
2018-06-10T00:36:14.161Z,20.68
2018-06-10T00:37:20.750Z,20.66
2018-06-10T00:38:27.764Z,20.65
2018-06-10T00:39:34.793Z,20.63
2018-06-10T00:40:41.504Z,20.62
2018-06-10T00:41:48.564Z,20.62
2018-06-10T00:42:55.648Z,20.60
2018-06-10T00:44:04.189Z,20.60
2018-06-10T00:45:09.723Z,20.59
2018-06-10T00:46:17.089Z,20.59
2018-06-10T00:47:23.993Z,20.58
2018-06-10T00:48:31.175Z,20.57
2018-06-10T00:49:38.222Z,20.57
2018-06-10T00:50:45.153Z,20.56
2018-06-10T00:51:52.272Z,20.56
2018-06-10T00:52:59.253Z,20.53
2018-06-10T00:54:06.370Z,20.53
2018-06-10T00:55:13.389Z,20.53
2018-06-10T00:56:20.384Z,20.52
2018-06-10T00:57:27.718Z,20.51
2018-06-10T00:58:34.397Z,20.50
2018-06-10T00:59:41.555Z,20.49
2018-06-10T01:00:48.378Z,20.48
2018-06-10T01:01:55.205Z,20.47
2018-06-10T01:03:01.948Z,20.47
2018-06-10T01:04:08.926Z,20.45
2018-06-10T01:05:16.014Z,20.45
2018-06-10T01:06:22.566Z,20.45
2018-06-10T01:07:29.499Z,20.44
2018-06-10T01:08:36.617Z,20.43
2018-06-10T01:09:43.434Z,20.41
2018-06-10T01:10:50.196Z,20.40
2018-06-10T01:11:57.399Z,20.40
2018-06-10T01:13:04.533Z,20.39
2018-06-10T01:14:11.201Z,20.37
2018-06-10T01:15:17.986Z,20.37
2018-06-10T01:16:25.001Z,20.36
2018-06-10T01:17:31.939Z,20.36
2018-06-10T01:18:38.532Z,20.35
2018-06-10T01:19:45.866Z,20.35
2018-06-10T01:20:52.860Z,20.33
2018-06-10T01:21:59.598Z,20.32
2018-06-10T01:23:06.393Z,20.32
2018-06-10T01:24:13.619Z,20.31
2018-06-10T01:25:20.545Z,20.31
2018-06-10T01:26:27.291Z,20.29
2018-06-10T01:27:34.104Z,20.29
2018-06-10T01:28:40.999Z,20.27
2018-06-10T01:29:48.082Z,20.26
2018-06-10T01:30:56.308Z,20.25
2018-06-10T01:32:01.530Z,20.24
2018-06-10T01:33:08.521Z,20.25
2018-06-10T01:34:15.682Z,20.24
2018-06-10T01:35:22.488Z,20.21
2018-06-10T01:36:29.585Z,20.20
2018-06-10T01:37:36.499Z,20.19
2018-06-10T01:38:43.189Z,20.20
2018-06-10T01:39:50.365Z,20.18
2018-06-10T01:40:57.642Z,20.17
2018-06-10T01:42:04.540Z,20.16
2018-06-10T01:43:11.551Z,20.15
2018-06-10T01:44:18.708Z,20.15
2018-06-10T01:45:25.727Z,20.15
2018-06-10T01:46:33.068Z,20.14
2018-06-10T01:47:39.653Z,20.12
2018-06-10T01:48:46.355Z,20.12
2018-06-10T01:49:53.411Z,20.11
2018-06-10T01:51:00.110Z,20.12
2018-06-10T01:52:07.276Z,20.10
2018-06-10T01:53:14.207Z,20.08
2018-06-10T01:54:21.439Z,20.08
2018-06-10T01:55:28.939Z,20.08
2018-06-10T01:56:35.319Z,20.06
2018-06-10T01:57:42.309Z,20.05
2018-06-10T01:58:49.454Z,20.05
2018-06-10T01:59:56.185Z,20.05
2018-06-10T02:01:03.285Z,20.03
2018-06-10T02:02:10.569Z,20.03
2018-06-10T02:03:17.454Z,20.00
2018-06-10T02:04:23.888Z,19.99
2018-06-10T02:05:30.880Z,20.00
2018-06-10T02:06:38.129Z,19.99
2018-06-10T02:07:44.600Z,19.98
2018-06-10T02:08:51.616Z,19.98
2018-06-10T02:09:58.574Z,19.96
2018-06-10T02:11:05.416Z,19.96
2018-06-10T02:12:12.568Z,19.95
2018-06-10T02:13:19.773Z,19.94
2018-06-10T02:14:26.431Z,19.93
2018-06-10T02:15:33.490Z,19.92
2018-06-10T02:16:40.668Z,19.91
2018-06-10T02:17:47.861Z,19.91
2018-06-10T02:18:54.653Z,19.90
2018-06-10T02:20:01.219Z,19.89
2018-06-10T02:21:08.301Z,19.88
2018-06-10T02:22:15.618Z,19.88
2018-06-10T02:23:22.385Z,19.87
2018-06-10T02:24:29.083Z,19.86
2018-06-10T02:25:36.131Z,19.85
2018-06-10T02:26:43.084Z,19.84
2018-06-10T02:27:49.980Z,19.83
2018-06-10T02:28:57.103Z,19.83
2018-06-10T02:30:04.128Z,19.82
2018-06-10T02:31:11.189Z,19.80
2018-06-10T02:32:18.128Z,19.80
2018-06-10T02:33:25.082Z,19.80
2018-06-10T02:34:32.365Z,19.79
2018-06-10T02:35:38.985Z,19.78
2018-06-10T02:36:46.071Z,19.77
2018-06-10T02:37:53.647Z,19.78
2018-06-10T03:10:13.211Z,19.75
2018-06-10T03:11:18.051Z,19.52
2018-06-10T03:15:49.272Z,19.50
2018-06-10T03:46:18.897Z,19.50
2018-06-10T03:51:18.892Z,19.31
2018-06-10T03:52:25.958Z,19.30
2018-06-10T03:53:32.668Z,19.28
2018-06-10T03:54:39.948Z,19.29
2018-06-10T03:55:46.726Z,19.28
2018-06-10T03:56:53.821Z,19.28
2018-06-10T03:58:00.559Z,19.27
2018-06-10T03:59:07.476Z,19.26
2018-06-10T04:00:14.138Z,19.26
2018-06-10T04:01:21.253Z,19.26
2018-06-10T04:02:28.414Z,19.26
2018-06-10T04:03:35.610Z,19.24
2018-06-10T04:04:42.157Z,19.24
2018-06-10T04:05:49.136Z,19.24
2018-06-10T04:06:56.229Z,19.23
2018-06-10T04:08:02.535Z,19.22
2018-06-10T04:09:09.351Z,19.21
2018-06-10T04:10:16.263Z,19.20
2018-06-10T04:11:25.906Z,19.20
2018-06-10T04:12:30.808Z,19.20
2018-06-10T04:13:37.072Z,19.19
2018-06-10T04:14:44.454Z,19.19
2018-06-10T04:15:50.386Z,19.19
2018-06-10T04:16:57.362Z,19.18
2018-06-10T04:18:04.261Z,19.18
2018-06-10T04:19:10.984Z,19.17
2018-06-10T04:20:17.775Z,19.18
2018-06-10T04:21:24.749Z,19.17
2018-06-10T04:22:31.868Z,19.16
2018-06-10T04:23:39.039Z,19.16
2018-06-10T04:24:45.751Z,19.16
2018-06-10T04:25:52.843Z,19.15
2018-06-10T04:26:59.840Z,19.14
2018-06-10T04:28:06.982Z,19.14
2018-06-10T04:29:13.995Z,19.13
2018-06-10T04:30:20.620Z,19.14
2018-06-10T04:31:27.540Z,19.13
2018-06-10T04:32:34.470Z,19.12
2018-06-10T04:33:41.471Z,19.12
2018-06-10T04:34:48.533Z,19.11
2018-06-10T04:35:55.527Z,19.11
2018-06-10T04:37:02.536Z,19.10
2018-06-10T04:38:09.717Z,19.10
2018-06-10T04:39:16.400Z,19.08
2018-06-10T04:40:23.487Z,19.09
2018-06-10T04:41:30.409Z,19.10
2018-06-10T04:42:37.679Z,19.08
2018-06-10T04:43:44.344Z,19.06
2018-06-10T04:44:51.448Z,19.07
2018-06-10T04:45:58.544Z,19.07
2018-06-10T04:47:05.011Z,19.06
2018-06-10T04:48:12.200Z,19.06
2018-06-10T04:49:18.771Z,19.05
2018-06-10T04:50:25.742Z,19.05
2018-06-10T04:51:32.737Z,19.04
2018-06-10T04:52:39.835Z,19.04
2018-06-10T04:53:46.784Z,19.02
2018-06-10T04:54:53.791Z,19.04
2018-06-10T04:56:00.767Z,19.03
2018-06-10T04:57:07.771Z,19.01
2018-06-10T04:58:14.819Z,19.01
2018-06-10T04:59:21.976Z,19.00
2018-06-10T05:00:28.948Z,19.01
2018-06-10T05:01:35.726Z,18.99
2018-06-10T05:02:42.714Z,19.00
2018-06-10T05:03:49.620Z,18.99
2018-06-10T05:04:56.537Z,18.99
2018-06-10T05:06:03.697Z,18.98
2018-06-10T05:07:10.182Z,18.99
2018-06-10T05:08:17.120Z,18.98
2018-06-10T05:09:24.146Z,18.97
2018-06-10T05:10:30.711Z,18.97
2018-06-10T05:11:37.651Z,18.96
2018-06-10T05:12:44.690Z,18.97
2018-06-10T05:13:51.756Z,18.97
2018-06-10T05:14:58.695Z,18.95
2018-06-10T05:16:05.704Z,18.95
2018-06-10T05:17:12.672Z,18.95
2018-06-10T05:18:19.671Z,18.95
2018-06-10T05:19:26.582Z,18.94
2018-06-10T05:20:33.511Z,18.94
2018-06-10T05:21:40.350Z,18.93
2018-06-10T05:22:47.296Z,18.93
2018-06-10T05:23:54.361Z,18.92
2018-06-10T05:25:01.319Z,18.93
2018-06-10T05:26:08.299Z,18.92
2018-06-10T05:27:15.258Z,18.93
2018-06-10T05:28:22.331Z,18.90
2018-06-10T05:29:29.051Z,18.92
2018-06-10T05:30:35.981Z,18.92
2018-06-10T05:31:42.748Z,18.90
2018-06-10T05:32:49.727Z,18.90
2018-06-10T05:33:56.603Z,18.91
2018-06-10T05:35:03.542Z,18.90
2018-06-10T05:36:10.344Z,18.89
2018-06-10T05:37:17.266Z,18.89
2018-06-10T05:38:24.528Z,18.88
2018-06-10T05:39:31.043Z,18.87
2018-06-10T05:40:37.919Z,18.87
2018-06-10T05:41:44.915Z,18.86
2018-06-10T05:42:51.887Z,18.88
2018-06-10T05:43:58.816Z,18.86
2018-06-10T05:45:05.658Z,18.85
2018-06-10T05:46:12.652Z,18.86
2018-06-10T05:47:19.693Z,18.85
2018-06-10T05:48:26.630Z,18.85
2018-06-10T05:49:33.516Z,18.85
2018-06-10T05:50:40.468Z,18.84
2018-06-10T05:51:47.377Z,18.84
2018-06-10T05:52:54.221Z,18.83
2018-06-10T05:54:01.145Z,18.83
2018-06-10T05:55:08.136Z,18.84
2018-06-10T05:56:15.164Z,18.83
2018-06-10T05:57:22.090Z,18.83
2018-06-10T05:58:28.976Z,18.83
2018-06-10T05:59:35.977Z,18.81
2018-06-10T06:00:42.963Z,18.81
2018-06-10T06:01:49.872Z,18.81
2018-06-10T06:02:56.868Z,18.81
2018-06-10T06:04:03.744Z,18.80
2018-06-10T06:05:10.712Z,18.81
2018-06-10T06:06:17.641Z,18.80
2018-06-10T06:07:24.532Z,18.80
2018-06-10T06:08:31.520Z,18.80
2018-06-10T06:09:38.523Z,18.80
2018-06-10T06:10:45.433Z,18.80
2018-06-10T06:11:52.359Z,18.78
2018-06-10T06:12:59.508Z,18.78
2018-06-10T06:14:05.891Z,18.80
2018-06-10T06:15:12.843Z,18.78
2018-06-10T06:16:19.773Z,18.79
2018-06-10T06:17:27.061Z,18.78
2018-06-10T06:18:33.528Z,18.77
2018-06-10T06:19:40.467Z,18.77
2018-06-10T06:20:47.330Z,18.78
2018-06-10T06:21:54.233Z,18.77
2018-06-10T06:23:01.067Z,18.76
2018-06-10T06:24:08.004Z,18.77
2018-06-10T06:25:14.929Z,18.78
2018-06-10T06:26:21.968Z,18.76
2018-06-10T06:27:29.250Z,18.77
2018-06-10T06:28:35.604Z,18.76
2018-06-10T06:29:42.403Z,18.76
2018-06-10T06:30:49.401Z,18.76
2018-06-10T06:31:56.408Z,18.76
2018-06-10T06:33:03.375Z,18.75
2018-06-10T06:34:10.396Z,18.76
2018-06-10T06:35:17.430Z,18.75
2018-06-10T06:36:24.327Z,18.74
2018-06-10T06:37:31.266Z,18.75
2018-06-10T06:38:38.302Z,18.76
2018-06-10T06:39:45.346Z,18.75
2018-06-10T06:40:52.167Z,18.75
2018-06-10T06:41:59.144Z,18.75
2018-06-10T06:43:06.144Z,18.74
2018-06-10T06:44:13.124Z,18.75
2018-06-10T06:45:20.146Z,18.75
2018-06-10T06:46:27.142Z,18.76
2018-06-10T06:47:33.883Z,18.74
2018-06-10T06:48:40.895Z,18.75
2018-06-10T06:49:47.795Z,18.74
2018-06-10T06:50:54.628Z,18.73
2018-06-10T06:52:01.561Z,18.75
2018-06-10T06:53:08.493Z,18.74
2018-06-10T06:54:15.521Z,18.77
2018-06-10T06:55:22.637Z,18.75
2018-06-10T06:56:29.556Z,18.75
2018-06-10T06:57:36.359Z,18.76
2018-06-10T06:58:43.308Z,18.76
2018-06-10T06:59:50.106Z,18.76
2018-06-10T07:00:57.067Z,18.76
2018-06-10T07:02:03.949Z,18.76
2018-06-10T07:03:10.898Z,18.76
2018-06-10T07:04:17.747Z,18.76
2018-06-10T07:05:24.647Z,18.77
2018-06-10T07:06:31.703Z,18.78
2018-06-10T07:07:38.610Z,18.79
2018-06-10T07:08:45.419Z,18.80
2018-06-10T07:09:52.375Z,18.78
2018-06-10T07:10:59.658Z,18.79
2018-06-10T07:12:06.099Z,18.80
2018-06-10T07:13:12.995Z,18.80
2018-06-10T07:14:19.954Z,18.81
2018-06-10T07:15:26.723Z,18.81
2018-06-10T07:16:35.354Z,18.81
2018-06-10T07:17:40.827Z,18.83
2018-06-10T07:18:47.830Z,18.83
2018-06-10T07:19:54.593Z,18.84
2018-06-10T07:21:01.570Z,18.83
2018-06-10T07:22:08.415Z,18.85
2018-06-10T07:23:15.249Z,18.85
2018-06-10T07:24:22.066Z,18.86
2018-06-10T07:25:28.997Z,18.87
2018-06-10T07:26:35.963Z,18.88
2018-06-10T07:27:42.707Z,18.88
2018-06-10T07:28:49.513Z,18.89
2018-06-10T07:29:56.283Z,18.90
2018-06-10T07:31:03.479Z,18.90
2018-06-10T07:32:09.822Z,18.91
2018-06-10T07:33:16.726Z,18.93
2018-06-10T07:34:23.740Z,18.92
2018-06-10T07:35:30.587Z,18.94
2018-06-10T07:36:37.440Z,18.94
2018-06-10T07:37:44.279Z,18.95
2018-06-10T07:38:51.084Z,18.97
2018-06-10T07:39:58.051Z,18.97
2018-06-10T07:41:04.834Z,18.98
2018-06-10T07:42:11.571Z,18.99
2018-06-10T07:43:18.278Z,19.01
2018-06-10T07:44:25.144Z,19.01
2018-06-10T07:45:31.955Z,19.03
2018-06-10T07:46:39.166Z,19.04
2018-06-10T07:47:46.078Z,19.05
2018-06-10T07:48:52.803Z,19.05
2018-06-10T07:49:59.738Z,19.06
2018-06-10T07:51:06.618Z,19.07
2018-06-10T07:52:13.347Z,19.08
2018-06-10T07:53:20.071Z,19.08
2018-06-10T07:54:26.991Z,19.09
2018-06-10T07:55:33.727Z,19.10
2018-06-10T07:56:40.586Z,19.11
2018-06-10T07:57:47.462Z,19.12
2018-06-10T07:58:54.292Z,19.14
2018-06-10T08:00:01.296Z,19.14
2018-06-10T08:01:08.271Z,19.15
2018-06-10T08:02:15.103Z,19.15
2018-06-10T08:03:21.998Z,19.16
2018-06-10T08:04:29.012Z,19.17
2018-06-10T08:05:35.724Z,19.18
2018-06-10T08:06:42.477Z,19.20
2018-06-10T08:07:49.470Z,19.19
2018-06-10T08:08:56.512Z,19.21
2018-06-10T08:10:03.515Z,19.21
2018-06-10T08:11:10.454Z,19.23
2018-06-10T08:12:17.375Z,19.26
2018-06-10T08:13:24.326Z,19.26
2018-06-10T08:14:31.304Z,19.26
2018-06-10T08:15:38.331Z,19.28
2018-06-10T08:16:45.160Z,19.29
2018-06-10T08:17:52.080Z,19.29
2018-06-10T08:18:58.966Z,19.30
2018-06-10T08:20:07.771Z,19.32
2018-06-10T08:21:12.427Z,19.32
2018-06-10T08:22:19.484Z,19.34
2018-06-10T08:23:26.456Z,19.36
2018-06-10T08:24:33.427Z,19.37
2018-06-10T08:25:40.302Z,19.38
2018-06-10T08:26:47.312Z,19.39
2018-06-10T08:27:54.355Z,19.41
2018-06-10T08:29:01.315Z,19.41
2018-06-10T08:30:08.332Z,19.44
2018-06-10T08:31:15.418Z,19.44
2018-06-10T08:32:22.369Z,19.45
2018-06-10T08:33:29.332Z,19.45
2018-06-10T08:34:36.150Z,19.48
2018-06-10T08:35:42.966Z,19.49
2018-06-10T08:36:49.976Z,19.51
2018-06-10T08:37:56.828Z,19.51
2018-06-10T08:39:03.746Z,19.52
2018-06-10T08:40:10.363Z,19.53
2018-06-10T08:41:17.218Z,19.56
2018-06-10T08:42:24.166Z,19.56
2018-06-10T08:44:37.792Z,19.60
2018-06-10T08:45:46.483Z,19.62
2018-06-10T08:46:52.699Z,19.62
2018-06-10T08:47:58.725Z,19.65
2018-06-10T08:49:06.037Z,19.65
2018-06-10T08:50:12.664Z,19.66
2018-06-10T08:51:19.611Z,19.69
2018-06-10T08:52:26.533Z,19.69
2018-06-10T08:55:12.325Z,19.73
2018-06-10T08:56:19.278Z,19.75
2018-06-10T08:57:25.996Z,19.77
2018-06-10T08:58:33.207Z,19.77
2018-06-10T08:59:40.053Z,19.81
2018-06-10T09:00:46.870Z,19.83
2018-06-10T09:01:53.863Z,19.84
2018-06-10T09:03:00.619Z,19.85
2018-06-10T09:04:07.325Z,19.87
2018-06-10T09:05:14.607Z,19.87
2018-06-10T09:06:21.441Z,19.88
2018-06-10T09:07:28.390Z,19.91
2018-06-10T09:08:36.788Z,19.91
2018-06-10T09:09:41.919Z,19.94
2018-06-10T09:10:49.040Z,19.94
2018-06-10T09:11:56.074Z,19.98
2018-06-10T09:13:02.896Z,19.98
2018-06-10T09:14:09.764Z,19.99
2018-06-10T09:15:16.662Z,20.00
2018-06-10T09:16:23.410Z,20.04
2018-06-10T09:17:30.448Z,20.05
2018-06-10T09:18:37.390Z,20.05
2018-06-10T09:19:44.380Z,20.06
2018-06-10T09:20:51.127Z,20.08
2018-06-10T09:21:57.891Z,20.11
2018-06-10T09:23:04.857Z,20.12
2018-06-10T09:24:11.520Z,20.12
2018-06-10T09:25:18.759Z,20.14
2018-06-10T09:26:30.096Z,20.15
2018-06-10T09:27:33.364Z,20.16
2018-06-10T09:28:39.779Z,20.18
2018-06-10T09:29:49.909Z,20.20
2018-06-10T09:30:53.366Z,20.24
2018-06-10T09:32:00.298Z,20.24
2018-06-10T09:33:07.528Z,20.25
2018-06-10T09:34:14.472Z,20.28
2018-06-10T09:35:21.360Z,20.29
2018-06-10T09:36:28.056Z,20.31
2018-06-10T09:37:39.932Z,20.33
2018-06-10T09:38:41.935Z,20.33
2018-06-10T09:39:48.877Z,20.33
2018-06-10T09:40:55.810Z,20.35
2018-06-10T09:42:02.796Z,20.37
2018-06-10T09:43:09.792Z,20.39
2018-06-10T09:44:23.880Z,20.40
2018-06-10T09:45:23.361Z,20.40
2018-06-10T09:46:30.350Z,20.42
2018-06-10T09:47:37.301Z,20.43
2018-06-10T09:48:44.199Z,20.46
2018-06-10T09:49:51.139Z,20.47
2018-06-10T09:50:57.874Z,20.48
2018-06-10T09:52:04.843Z,20.50
2018-06-10T09:53:11.675Z,20.50
2018-06-10T09:54:18.580Z,20.52
2018-06-10T09:55:25.333Z,20.53
2018-06-10T09:56:32.014Z,20.56
2018-06-10T09:57:38.827Z,20.57
2018-06-10T09:58:45.729Z,20.59
2018-06-10T09:59:52.836Z,20.59
2018-06-10T10:01:00.391Z,20.63
2018-06-10T10:02:06.797Z,20.64
2018-06-10T10:03:13.718Z,20.66
2018-06-10T10:04:20.531Z,20.68
2018-06-10T10:05:27.570Z,20.68
2018-06-10T10:06:34.613Z,20.70
2018-06-10T10:07:41.517Z,20.71
2018-06-10T10:08:48.402Z,20.72
2018-06-10T10:09:55.644Z,20.72
2018-06-10T10:11:03.931Z,20.74
2018-06-10T10:12:09.220Z,20.76
2018-06-10T10:13:15.792Z,20.78
2018-06-10T10:14:22.871Z,20.80
2018-06-10T10:15:29.719Z,20.82
2018-06-10T10:16:36.596Z,20.83
2018-06-10T10:17:43.534Z,20.85
2018-06-10T10:18:50.483Z,20.86
2018-06-10T10:19:57.251Z,20.87
2018-06-10T10:21:04.078Z,20.90
2018-06-10T10:22:10.974Z,20.89
2018-06-10T10:23:17.775Z,20.91
2018-06-10T10:24:24.554Z,20.92
2018-06-10T10:25:31.298Z,20.94
2018-06-10T10:26:38.715Z,20.95
2018-06-10T10:27:45.094Z,20.96
2018-06-10T10:28:52.132Z,20.98
2018-06-10T10:29:59.051Z,20.98
2018-06-10T10:31:06.011Z,21.01
2018-06-10T10:32:12.937Z,21.02
2018-06-10T10:33:19.752Z,21.05
2018-06-10T10:34:26.713Z,21.04
2018-06-10T10:35:33.491Z,21.07
2018-06-10T10:36:40.326Z,21.08
2018-06-10T10:37:47.475Z,21.08
2018-06-10T10:38:54.249Z,21.11
2018-06-10T10:40:01.118Z,21.12
2018-06-10T10:41:07.821Z,21.12
2018-06-10T10:42:15.027Z,21.14
2018-06-10T10:43:21.919Z,21.18
2018-06-10T10:44:28.599Z,21.19
2018-06-10T10:45:35.499Z,21.20
2018-06-10T10:46:42.363Z,21.20
2018-06-10T10:47:49.115Z,21.24
2018-06-10T10:48:55.873Z,21.23
2018-06-10T10:50:02.686Z,21.25
2018-06-10T10:51:09.519Z,21.26
2018-06-10T10:52:16.214Z,21.28
2018-06-10T10:53:22.939Z,21.29
2018-06-10T10:54:29.675Z,21.30
2018-06-10T10:55:36.375Z,21.32
2018-06-10T10:56:43.295Z,21.33
2018-06-10T10:57:50.045Z,21.34
2018-06-10T10:58:56.767Z,21.34
2018-06-10T11:00:05.400Z,21.37
2018-06-10T11:01:10.142Z,21.38
2018-06-10T11:02:16.911Z,21.38
2018-06-10T11:03:23.790Z,21.40
2018-06-10T11:04:30.674Z,21.43
2018-06-10T11:05:37.458Z,21.45
2018-06-10T11:06:44.306Z,21.46
2018-06-10T11:07:51.191Z,21.48
2018-06-10T11:08:57.842Z,21.48
2018-06-10T11:10:05.042Z,21.50
2018-06-10T11:11:11.828Z,21.51
2018-06-10T11:12:18.588Z,21.52
2018-06-10T11:13:25.448Z,21.54
2018-06-10T11:14:32.444Z,21.55
2018-06-10T11:15:39.270Z,21.56
2018-06-10T11:16:45.996Z,21.58
2018-06-10T11:17:52.834Z,21.60
2018-06-10T11:18:59.789Z,21.60
2018-06-10T11:20:06.792Z,21.62
2018-06-10T11:21:13.721Z,21.64
2018-06-10T11:22:20.526Z,21.64
2018-06-10T11:23:27.233Z,21.66
2018-06-10T11:24:34.016Z,21.67
2018-06-10T11:25:40.902Z,21.68
2018-06-10T11:26:47.623Z,21.69
2018-06-10T11:27:54.447Z,21.71
2018-06-10T11:29:01.156Z,21.71
2018-06-10T11:30:08.043Z,21.74
2018-06-10T11:31:14.678Z,21.74
2018-06-10T11:32:21.921Z,21.77
2018-06-10T11:33:29.061Z,21.79
2018-06-10T11:34:35.795Z,21.79
2018-06-10T11:35:42.523Z,21.80
2018-06-10T11:36:49.319Z,21.81
2018-06-10T11:37:56.304Z,21.83
2018-06-10T11:39:03.236Z,21.84
2018-06-10T11:40:10.151Z,21.89
2018-06-10T11:41:16.825Z,21.89
2018-06-10T11:42:23.593Z,21.89
2018-06-10T11:43:30.430Z,21.91
2018-06-10T11:44:37.135Z,21.92
2018-06-10T11:45:43.863Z,21.94
2018-06-10T11:46:50.817Z,21.94
2018-06-10T11:47:57.835Z,21.96
2018-06-10T11:49:04.782Z,21.97
2018-06-10T11:50:11.540Z,21.99
2018-06-10T11:51:18.275Z,22.00
2018-06-10T11:52:24.958Z,22.04
2018-06-10T11:53:31.699Z,22.04
2018-06-10T11:54:38.439Z,22.04
2018-06-10T11:55:45.291Z,22.05
2018-06-10T11:56:52.191Z,22.06
2018-06-10T11:57:59.085Z,22.08
2018-06-10T11:59:05.813Z,22.09
2018-06-10T12:00:12.555Z,22.11
2018-06-10T12:01:19.280Z,22.12
2018-06-10T12:02:26.223Z,22.14
2018-06-10T12:03:33.122Z,22.15
2018-06-10T12:04:39.845Z,22.16
2018-06-10T12:05:46.539Z,22.18
2018-06-10T12:06:53.291Z,22.20
2018-06-10T12:08:00.095Z,22.20
2018-06-10T12:09:06.971Z,22.22
2018-06-10T12:10:13.872Z,22.23
2018-06-10T12:11:20.796Z,22.25
2018-06-10T12:12:29.035Z,22.25
2018-06-10T12:13:34.527Z,22.28
2018-06-10T12:14:41.403Z,22.28
2018-06-10T12:15:48.295Z,22.30
2018-06-10T12:16:55.224Z,22.31
2018-06-10T12:18:01.993Z,22.33
2018-06-10T12:19:08.977Z,22.35
2018-06-10T12:20:15.886Z,22.35
2018-06-10T12:21:22.878Z,22.37
2018-06-10T12:22:30.029Z,22.39
2018-06-10T12:23:36.600Z,22.39
2018-06-10T12:24:43.547Z,22.42
2018-06-10T12:25:50.449Z,22.41
2018-06-10T12:26:57.350Z,22.43
2018-06-10T12:28:04.280Z,22.43
2018-06-10T12:29:11.279Z,22.45
2018-06-10T12:30:18.232Z,22.47
2018-06-10T12:31:25.195Z,22.48
2018-06-10T12:32:32.007Z,22.49
2018-06-10T12:33:38.805Z,22.51
2018-06-10T12:34:45.570Z,22.51
2018-06-10T12:35:52.320Z,22.53
2018-06-10T12:36:59.195Z,22.53
2018-06-10T12:38:05.903Z,22.54
2018-06-10T12:39:12.768Z,22.56
2018-06-10T12:40:19.487Z,22.58
2018-06-10T12:41:26.342Z,22.58
2018-06-10T12:42:33.272Z,22.61
2018-06-10T12:43:40.113Z,22.63
2018-06-10T12:44:46.834Z,22.63
2018-06-10T12:45:53.602Z,22.64
2018-06-10T12:47:00.260Z,22.65
2018-06-10T12:48:07.119Z,22.66
2018-06-10T12:49:14.080Z,22.69
2018-06-10T12:50:20.754Z,22.68
2018-06-10T12:51:27.464Z,22.69
2018-06-10T12:52:34.170Z,22.70
2018-06-10T12:53:40.963Z,22.73
2018-06-10T12:54:47.631Z,22.73
2018-06-10T12:55:54.563Z,22.74
2018-06-10T12:57:01.175Z,22.74
2018-06-10T12:58:08.555Z,22.76
2018-06-10T12:59:15.555Z,22.77
2018-06-10T13:00:22.303Z,22.77
2018-06-10T13:01:28.971Z,22.79
2018-06-10T13:02:36.446Z,22.81
2018-06-10T13:03:43.187Z,22.82
2018-06-10T13:04:49.847Z,22.82
2018-06-10T13:05:56.718Z,22.83
2018-06-10T13:07:03.457Z,22.84
2018-06-10T13:08:10.142Z,22.85
2018-06-10T13:09:16.854Z,22.85
2018-06-10T13:10:23.598Z,22.86
2018-06-10T13:11:30.328Z,22.88
2018-06-10T13:12:37.191Z,22.87
2018-06-10T13:13:43.873Z,22.88
2018-06-10T13:14:50.575Z,22.89
2018-06-10T13:15:57.387Z,22.90
2018-06-10T13:17:04.079Z,22.92
2018-06-10T13:18:10.930Z,22.92
2018-06-10T13:19:17.663Z,22.92
2018-06-10T13:20:24.370Z,22.93
2018-06-10T13:21:31.102Z,22.95
2018-06-10T13:22:37.756Z,22.94
2018-06-10T13:23:44.922Z,22.96
2018-06-10T13:24:51.667Z,22.95
2018-06-10T13:25:58.352Z,22.97
2018-06-10T13:27:05.046Z,22.98
2018-06-10T13:28:11.790Z,22.98
2018-06-10T13:29:18.482Z,22.98
2018-06-10T13:30:25.780Z,23.00
2018-06-10T13:31:32.456Z,23.00
2018-06-10T13:32:39.569Z,23.02
2018-06-10T13:33:46.845Z,23.03
2018-06-10T13:34:53.630Z,23.03
2018-06-10T13:36:00.505Z,23.04
2018-06-10T13:37:07.192Z,23.04
2018-06-10T13:38:13.948Z,23.05
2018-06-10T13:39:20.641Z,23.05
2018-06-10T13:40:27.566Z,23.05
2018-06-10T13:41:34.316Z,23.05
2018-06-10T13:42:41.021Z,23.07
2018-06-10T13:43:47.734Z,23.08
2018-06-10T13:44:54.455Z,23.09
2018-06-10T13:46:01.279Z,23.09
2018-06-10T13:47:08.118Z,23.10
2018-06-10T13:48:14.972Z,23.10
2018-06-10T13:49:21.683Z,23.12
2018-06-10T13:50:28.374Z,23.12
2018-06-10T13:51:35.590Z,23.12
2018-06-10T13:52:42.510Z,23.13
2018-06-10T13:53:49.253Z,23.13
2018-06-10T13:54:56.092Z,23.13
2018-06-10T13:56:02.852Z,23.14
2018-06-10T13:57:09.848Z,23.14
2018-06-10T13:58:16.547Z,23.15
2018-06-10T13:59:23.544Z,23.15
2018-06-10T14:00:30.335Z,23.16
2018-06-10T14:01:37.014Z,23.17
2018-06-10T14:02:43.742Z,23.19
2018-06-10T14:03:50.440Z,23.17
2018-06-10T14:04:57.167Z,23.19
2018-06-10T14:06:03.971Z,23.19
2018-06-10T14:07:10.836Z,23.21
2018-06-10T14:08:17.670Z,23.22
2018-06-10T14:09:24.365Z,23.23
2018-06-10T14:10:31.084Z,23.23
2018-06-10T14:11:37.820Z,23.25
2018-06-10T14:12:44.599Z,23.25
2018-06-10T14:13:51.349Z,23.25
2018-06-10T14:14:59.909Z,23.26
2018-06-10T14:16:05.279Z,23.27
2018-06-10T14:17:11.820Z,23.28
2018-06-10T14:18:18.814Z,23.31
2018-06-10T14:19:25.762Z,23.29
2018-06-10T14:20:32.304Z,23.31
2018-06-10T14:21:39.227Z,23.33
2018-06-10T14:22:46.092Z,23.33
2018-06-10T14:23:52.986Z,23.33
2018-06-10T14:24:59.819Z,23.33
2018-06-10T14:26:06.699Z,23.35
2018-06-10T14:27:13.528Z,23.35
2018-06-10T14:28:20.217Z,23.36
2018-06-10T14:29:27.069Z,23.35
2018-06-10T14:30:33.763Z,23.37
2018-06-10T14:31:40.520Z,23.37
2018-06-10T14:32:47.264Z,23.36
2018-06-10T14:33:54.179Z,23.39
2018-06-10T14:35:00.880Z,23.39
2018-06-10T14:36:07.892Z,23.42
2018-06-10T14:37:14.634Z,23.40
2018-06-10T14:38:21.402Z,23.40
2018-06-10T14:39:28.090Z,23.41
2018-06-10T14:40:34.813Z,23.43
2018-06-10T14:41:41.647Z,23.42
2018-06-10T14:42:48.408Z,23.42
2018-06-10T14:43:55.087Z,23.42
2018-06-10T14:45:01.801Z,23.43
2018-06-10T14:46:08.762Z,23.44
2018-06-10T14:47:15.475Z,23.44
2018-06-10T14:48:22.157Z,23.45
2018-06-10T14:49:28.976Z,23.45
2018-06-10T14:50:35.724Z,23.47
2018-06-10T14:51:42.493Z,23.46
2018-06-10T14:52:49.403Z,23.46
2018-06-10T14:53:56.070Z,23.47
2018-06-10T14:55:03.385Z,23.47
2018-06-10T14:56:10.167Z,23.48
2018-06-10T14:57:16.883Z,23.48
2018-06-10T14:58:23.838Z,23.48
2018-06-10T14:59:30.856Z,23.49
2018-06-10T15:00:37.543Z,23.50
2018-06-10T15:01:44.289Z,23.51
2018-06-10T15:02:51.223Z,23.52
2018-06-10T15:03:57.916Z,23.53
2018-06-10T15:05:04.871Z,23.53
2018-06-10T15:06:11.650Z,23.53
2018-06-10T15:07:18.567Z,23.54
2018-06-10T15:08:25.376Z,23.53
2018-06-10T15:09:32.265Z,23.54
2018-06-10T15:10:38.995Z,23.55
2018-06-10T15:11:45.851Z,23.56
2018-06-10T15:12:52.666Z,23.58
2018-06-10T15:13:59.391Z,23.58
2018-06-10T15:15:06.424Z,23.57
2018-06-10T15:16:13.260Z,23.59
2018-06-10T15:17:20.136Z,23.59
2018-06-10T15:18:27.139Z,23.59
2018-06-10T15:19:33.943Z,23.61
2018-06-10T15:20:40.648Z,23.60
2018-06-10T15:21:47.439Z,23.61
2018-06-10T15:22:54.330Z,23.61
2018-06-10T15:24:01.159Z,23.62
2018-06-10T15:25:08.038Z,23.63
2018-06-10T15:26:14.824Z,23.65
2018-06-10T15:27:21.647Z,23.63
2018-06-10T15:28:28.425Z,23.65
2018-06-10T15:29:35.159Z,23.67
2018-06-10T15:30:42.423Z,23.66
2018-06-10T15:31:49.249Z,23.67
2018-06-10T15:32:56.159Z,23.67
2018-06-10T15:34:03.095Z,23.69
2018-06-10T15:35:09.815Z,23.69
2018-06-10T15:36:16.733Z,23.71
2018-06-10T15:37:23.692Z,23.70
2018-06-10T15:38:30.591Z,23.71
2018-06-10T15:39:37.579Z,23.73
2018-06-10T15:40:44.475Z,23.74
2018-06-10T15:41:51.389Z,23.75
2018-06-10T15:42:58.527Z,23.74
2018-06-10T15:44:05.205Z,23.75
2018-06-10T15:45:11.950Z,23.75
2018-06-10T15:46:18.695Z,23.75
2018-06-10T15:47:25.544Z,23.75
2018-06-10T15:48:32.334Z,23.77
2018-06-10T15:49:39.192Z,23.77
2018-06-10T15:50:46.135Z,23.77